Weather Models
Both GFS & NAM
00z 06z 12z 18z
24hr Precip
00z 06z 12z 18z
36hr Simulated radar
00z 06z 12z 18z
SKEWT Soundings
00z 12z
Current Conditions (Updated 1:00pm on 3/3/21)
Temperature
 53°
0.47
54°  
33°  
0
10
20
30
40
50
60
70
80
90
100
Dew Point
21°
28°  
13°  
-20
-10
0
10
20
30
40
50
60
70
80
Wind Chill
51°
53°  
23°  
-20
-10
0
10
20
30
40
50
60
70
80
Wind Chill
Humidity
28%
59% 
27% 
0
10
20
30
40
50
60
70
80
90
100
Barometer
29.93
   Steady
30.10  
29.93  
28.00
28.30
28.60
28.90
29.20
29.50
29.80
30.10
30.40
30.70
31.00
Temperature
Dew Point
Humidity
Pressure
Wind
7mph
NNW
Daily Rain
.00
.05
.10
.15
.20
.25
.30
.35
.40
.45
.50
Rain Today
 0.00" 
Month Rain
0.00
0.20
0.40
0.60
0.80
1.00
1.20
1.40
1.60
1.80
2.00
Month Rain
 0.15" 
Year Rain
0.00
1.00
2.00
3.00
4.00
5.00
6.00
7.00
8.00
9.00
10.00
Year Rain
 6.15" 
Sun & Moon Data
Sunrise 6:28am
Sunset 5:52pm
Moonrise 11:14pm
Moonset 9:08am
Moon % 81%
Other Rain Data
Past Hour 0.00 Past 24 Hours 0.00
Past 3 Hours 0.00 Past 7 Days 1.44
Past 6 Hours 0.00
Cloud Height
8055


Current Front Map
Current Radar
7 Day Forecast
NWS Forecast for Philadelphia PA
National Weather Service Forecast for: Philadelphia PA
Issued by: National Weather Service Philadelphia, PA
Updated: 10:14 am EST Mar 3, 2021

Philadelphia PA.
 
This
Afternoon
This Afternoon: Sunny, with a high near 54. West wind around 10 mph.
Sunny
Tonight

Tonight: Partly cloudy, with a low around 34. Southwest wind around 5 mph becoming northwest after midnight.
Partly Cloudy
Thursday

Thursday: Mostly sunny, with a high near 45. Northwest wind 5 to 15 mph, with gusts as high as 25 mph.
Mostly Sunny
Thursday
Night
Thursday Night: Mostly clear, with a low around 23. Northwest wind 10 to 15 mph.
Mostly Clear
Friday

Friday: Sunny, with a high near 40. Northwest wind 10 to 15 mph, with gusts as high as 25 mph.
Sunny
Friday
Night
Friday Night: Mostly clear, with a low around 27.
Mostly Clear
Saturday

Saturday: Mostly sunny, with a high near 41.
Mostly Sunny
Saturday
Night
Saturday Night: Partly cloudy, with a low around 27.
Partly Cloudy
Sunday

Sunday: Mostly sunny, with a high near 41.
Mostly Sunny
Hi 54 °F Lo 34 °F Hi 45 °F Lo 23 °F Hi 40 °F Lo 27 °F Hi 41 °F Lo 27 °F Hi 41 °F

 

This Afternoon
 
Sunny, with a high near 54. West wind around 10 mph.
Tonight
 
Partly cloudy, with a low around 34. Southwest wind around 5 mph becoming northwest after midnight.
Thursday
 
Mostly sunny, with a high near 45. Northwest wind 5 to 15 mph, with gusts as high as 25 mph.
Thursday Night
 
Mostly clear, with a low around 23. Northwest wind 10 to 15 mph.
Friday
 
Sunny, with a high near 40. Northwest wind 10 to 15 mph, with gusts as high as 25 mph.
Friday Night
 
Mostly clear, with a low around 27.
Saturday
 
Mostly sunny, with a high near 41.
Saturday Night
 
Partly cloudy, with a low around 27.
Sunday
 
Mostly sunny, with a high near 41.
Sunday Night
 
Mostly clear, with a low around 26.
Monday
 
Sunny, with a high near 49.
Monday Night
 
Mostly clear, with a low around 34.
Tuesday
 
Mostly sunny, with a high near 59.

 

Forecast from NOAA-NWS for Philadelphia PA.

Area Weather Current Conditions
Nearby METAR Reports

KPHL - Philadelphia, Pennsylvania
Updated: Wed, 03-Mar-2021 11:54am EST
Few Clouds
Few Clouds
 Wind from WSW
Wind: WSW 13 mph , 20 km/h
Temperature: 48°F , 9°C
Wind Chill: 43°F , 6°C
Dew Point: 19°F , -7°C
Humidity: 32%
Barometer: 29.93 inHg , 1013.5 hPa
Clouds: Few Clouds
Visibility: 10 miles , 16 km
Cloud details: Few Clouds 25000 ft
2021/03/03 16:54 KPHL 031654Z 24011KT 10SM FEW250 09/M07 A2993 RMK AO2 SLP134 T00941067
KMPO - Mt. Pocono, Pennsylvania
Updated: Wed, 03-Mar-2021 11:53am EST
Clear
Clear
 Wind from W
Wind: W 12 mph , 19 km/h, Gust: 22 mph , 35 km/h
Temperature: 39°F , 4°C
Wind Chill: 32°F , 0°C
Dew Point: 21°F , -6°C
Humidity: 48%
Barometer: 29.81 inHg , 1009.5 hPa
Clouds: Clear
Visibility: 10 miles , 16 km
2021/03/03 16:53 KMPO 031653Z AUTO 28010G19KT 10SM CLR 04/M06 A2981 RMK AO2 SLP113 T00391056
 
KACY - Atlantic City, New Jersey
Updated: Wed, 03-Mar-2021 11:54am EST
Clear
Clear
 Wind from W
Wind: W 12 mph , 19 km/h
Temperature: 48°F , 9°C
Wind Chill: 43°F , 6°C
Dew Point: 18°F , -8°C
Humidity: 29%
Barometer: 29.95 inHg , 1014.2 hPa
Clouds: Clear
Visibility: 10 miles , 16 km
2021/03/03 16:54 KACY 031654Z 27010KT 10SM CLR 09/M08 A2995
KMIV - Millville, New Jersey
Updated: Wed, 03-Mar-2021 11:54am EST
Clear
Clear
 Wind from W
Wind: W 8 mph , 13 km/h, Gust: 20 mph , 31 km/h
Temperature: 50°F , 10°C
Wind Chill: 47°F , 8°C
Dew Point: 19°F , -7°C
Humidity: 30%
Barometer: 29.95 inHg , 1014.2 hPa
Clouds: Clear
Visibility: 10 miles , 16 km
2021/03/03 16:54 KMIV 031654Z AUTO 28007G17KT 10SM CLR 10/M07 A2995 RMK AO2 SLP141 T01001072
 
KWWD - Wildwood, New Jersey
Updated: Wed, 03-Mar-2021 11:56am EST
Clear
Clear
 Wind from W
Wind: W 9 mph , 15 km/h
Temperature: 46°F , 8°C
Wind Chill: 41°F , 5°C
Dew Point: 30°F , -1°C
Humidity: 53%
Barometer: 29.97 inHg , 1014.9 hPa
Clouds: Clear
Visibility: 10 miles , 16 km
2021/03/03 16:56 KWWD 031656Z AUTO 26008KT 10SM CLR 08/M01 A2997 RMK AO2 SLP152 T00831011 $
KDOV - Dover Afb, Delaware
Updated: Wed, 03-Mar-2021 11:56am EST
Clear
Clear
 Wind from SW
Wind: SW 10 mph , 17 km/h
Temperature: 50°F , 10°C
Wind Chill: 46°F , 8°C
Dew Point: 16°F , -9°C
Humidity: 25%
Barometer: 29.95 inHg , 1014.2 hPa
Clouds: Clear
Visibility: 10 miles , 16 km
2021/03/03 16:56 KDOV 031656Z AUTO 23009KT 10SM CLR 10/M09 A2995 RMK AO2 SLP146 T01041088 $
Severe Weather Map